createdAt,value
2018-10-06T00:01:34.516Z,101163.50
2018-10-06T00:04:02.617Z,101161.42
2018-10-06T00:06:30.672Z,101155.97
2018-10-06T00:08:58.733Z,101151.67
2018-10-06T00:11:26.801Z,101154.53
2018-10-06T00:13:54.873Z,101153.23
2018-10-06T00:16:22.945Z,101152.28
2018-10-06T00:18:51.022Z,101141.63
2018-10-06T00:21:19.144Z,101141.50
2018-10-06T00:23:47.260Z,101141.92
2018-10-06T00:26:15.313Z,101140.06
2018-10-06T00:28:43.378Z,101138.63
2018-10-06T00:31:11.429Z,101130.52
2018-10-06T00:33:39.551Z,101127.10
2018-10-06T00:36:07.609Z,101125.16
2018-10-06T00:38:35.697Z,101122.47
2018-10-06T00:41:03.753Z,101125.72
2018-10-06T00:43:31.825Z,101121.34
2018-10-06T00:45:59.873Z,101115.33
2018-10-06T00:48:27.966Z,101114.38
2018-10-06T00:50:56.038Z,101110.98
2018-10-06T00:53:24.104Z,101109.13
2018-10-06T00:55:52.173Z,101109.55
2018-10-06T00:58:20.228Z,101104.31
2018-10-06T01:00:48.273Z,101098.90
2018-10-06T01:03:16.341Z,101099.80
2018-10-06T01:05:44.404Z,101102.66
2018-10-06T01:08:12.474Z,101102.99
2018-10-06T01:10:40.530Z,101097.54
2018-10-06T01:13:08.589Z,101096.80
2018-10-06T01:15:36.641Z,101095.84
2018-10-06T01:18:04.722Z,101088.78
2018-10-06T01:20:32.781Z,101086.89
2018-10-06T01:23:00.841Z,101091.37
2018-10-06T01:25:28.889Z,101091.54
2018-10-06T01:27:56.981Z,101085.30
2018-10-06T01:30:25.041Z,101088.63
2018-10-06T01:32:53.096Z,101083.66
2018-10-06T01:35:21.156Z,101077.42
2018-10-06T01:37:49.215Z,101076.46
2018-10-06T01:40:17.300Z,101073.63
2018-10-06T01:42:45.349Z,101073.14
2018-10-06T01:45:13.461Z,101073.45
2018-10-06T01:47:41.523Z,101075.17
2018-10-06T01:50:09.585Z,101074.20
2018-10-06T01:52:37.646Z,101075.18
2018-10-06T01:55:05.784Z,101072.75
2018-10-06T01:57:33.820Z,101073.43
2018-10-06T02:00:01.890Z,101070.41
2018-10-06T02:02:29.941Z,101060.33
2018-10-06T02:04:58.001Z,101056.59
2018-10-06T02:07:26.053Z,101057.60
2018-10-06T02:09:54.134Z,101052.97
2018-10-06T02:12:22.189Z,101053.61
2018-10-06T02:14:50.270Z,101054.51
2018-10-06T02:17:18.375Z,101045.50
2018-10-06T02:19:46.436Z,101045.02
2018-10-06T02:22:14.519Z,101044.54
2018-10-06T02:24:42.585Z,101039.02
2018-10-06T02:27:10.645Z,101035.50
2018-10-06T02:29:38.702Z,101035.84
2018-10-06T02:32:06.803Z,101029.01
2018-10-06T02:34:34.875Z,101028.86
2018-10-06T02:37:02.941Z,101027.81
2018-10-06T02:39:31.109Z,101023.41
2018-10-06T02:41:59.373Z,101015.12
2018-10-06T02:44:27.431Z,101016.28
2018-10-06T02:46:55.625Z,101015.80
2018-10-06T02:49:23.697Z,101018.06
2018-10-06T02:51:51.760Z,101021.14
2018-10-06T02:54:19.825Z,101011.88
2018-10-06T02:56:47.938Z,101009.22
2018-10-06T02:59:15.998Z,101005.64
2018-10-06T03:01:44.050Z,101009.86
2018-10-06T03:04:12.117Z,101011.23
2018-10-06T03:06:40.269Z,101002.95
2018-10-06T03:09:08.865Z,101009.86
2018-10-06T03:11:37.024Z,101002.73
2018-10-06T03:14:05.296Z,100998.66
2018-10-06T03:16:33.361Z,100994.03
2018-10-06T03:19:01.414Z,100994.11
2018-10-06T03:21:29.530Z,100994.11
2018-10-06T03:23:57.585Z,100994.52
2018-10-06T03:26:25.771Z,100993.20
2018-10-06T03:28:53.940Z,100991.11
2018-10-06T03:31:22.018Z,100991.19
2018-10-06T03:33:50.079Z,100992.56
2018-10-06T03:36:18.157Z,100980.48
2018-10-06T03:38:46.218Z,100979.02
2018-10-06T03:41:14.304Z,100976.41
2018-10-06T03:43:42.355Z,100982.03
2018-10-06T03:46:11.357Z,100980.64
2018-10-06T03:48:39.409Z,100979.34
2018-10-06T03:51:07.501Z,100982.50
2018-10-06T03:53:35.565Z,100981.75
2018-10-06T03:56:03.633Z,100975.52
2018-10-06T03:58:31.992Z,100973.39
2018-10-06T04:01:00.094Z,100967.88
2018-10-06T04:03:28.170Z,100967.94
2018-10-06T04:05:56.328Z,100973.53
2018-10-06T04:08:24.388Z,100970.02
2018-10-06T04:10:52.561Z,100966.28
2018-10-06T04:13:20.634Z,100966.62
2018-10-06T04:15:49.014Z,100968.00
2018-10-06T04:18:17.080Z,100968.00
2018-10-06T04:20:45.153Z,100965.47
2018-10-06T04:23:13.221Z,100967.73
2018-10-06T04:25:41.285Z,100961.17
2018-10-06T04:28:09.358Z,100962.87
2018-10-06T04:30:37.489Z,100957.70
2018-10-06T04:33:05.581Z,100963.77
2018-10-06T04:35:33.649Z,100959.14
2018-10-06T04:38:01.737Z,100956.45
2018-10-06T04:40:29.797Z,100955.41
2018-10-06T04:42:57.886Z,100950.62
2018-10-06T04:45:25.945Z,100955.05
2018-10-06T04:47:54.009Z,100948.48
2018-10-06T04:50:22.097Z,100951.51
2018-10-06T04:52:50.145Z,100947.67
2018-10-06T04:55:18.246Z,100941.77
2018-10-06T04:57:46.298Z,100939.41
2018-10-06T05:00:14.354Z,100939.21
2018-10-06T05:02:42.425Z,100942.63
2018-10-06T05:05:10.489Z,100940.83
2018-10-06T05:07:38.549Z,100941.15
2018-10-06T05:10:06.654Z,100948.11
2018-10-06T05:12:34.750Z,100954.44
2018-10-06T05:15:02.789Z,100942.86
2018-10-06T05:17:30.874Z,100937.64
2018-10-06T05:19:58.926Z,100941.67
2018-10-06T05:22:27.015Z,100934.63
2018-10-06T05:24:55.065Z,100936.88
2018-10-06T05:27:23.145Z,100934.69
2018-10-06T05:29:51.208Z,100939.09
2018-10-06T05:32:19.288Z,100936.33
2018-10-06T05:34:47.358Z,100933.90
2018-10-06T05:37:15.526Z,100931.77
2018-10-06T05:39:43.590Z,100921.95
2018-10-06T05:42:11.682Z,100926.91
2018-10-06T05:44:39.737Z,100920.31
2018-10-06T05:47:07.806Z,100930.78
2018-10-06T05:49:35.880Z,100928.28
2018-10-06T05:52:03.998Z,100929.02
2018-10-06T05:54:32.090Z,100930.55
2018-10-06T05:57:00.164Z,100933.24
2018-10-06T05:59:28.222Z,100930.48
2018-10-06T06:01:56.345Z,100924.42
2018-10-06T06:04:24.413Z,100920.52
2018-10-06T06:06:52.485Z,100920.52
2018-10-06T06:09:20.612Z,100922.71
2018-10-06T06:11:48.632Z,100919.63
2018-10-06T06:14:16.713Z,100914.54
2018-10-06T06:16:44.783Z,100909.52
2018-10-06T06:19:12.839Z,100910.83
2018-10-06T06:21:40.901Z,100909.61
2018-10-06T06:24:08.995Z,100905.89
2018-10-06T06:26:37.077Z,100901.59
2018-10-06T06:29:05.150Z,100905.81
2018-10-06T06:31:33.255Z,100906.16
2018-10-06T06:34:01.332Z,100906.88
2018-10-06T06:36:29.420Z,100906.47
2018-10-06T06:38:57.482Z,100897.80
2018-10-06T06:41:25.545Z,100898.14
2018-10-06T06:43:53.694Z,100907.83
2018-10-06T06:46:21.690Z,100908.06
2018-10-06T06:48:49.754Z,100899.13
2018-10-06T06:51:17.857Z,100897.81
2018-10-06T06:53:45.974Z,100902.72
2018-10-06T06:56:14.042Z,100908.13
2018-10-06T06:58:42.118Z,100912.25
2018-10-06T07:01:10.241Z,100910.53
2018-10-06T07:03:38.317Z,100905.32
2018-10-06T07:06:06.430Z,100913.29
2018-10-06T07:08:34.505Z,100906.44
2018-10-06T07:11:02.572Z,100903.34
2018-10-06T07:13:30.670Z,100911.28
2018-10-06T07:15:58.769Z,100908.48
2018-10-06T07:18:26.916Z,100904.20
2018-10-06T07:20:54.994Z,100900.92
2018-10-06T07:23:23.078Z,100888.83
2018-10-06T07:25:51.137Z,100898.03
2018-10-06T07:28:19.219Z,100894.60
2018-10-06T07:30:47.283Z,100898.23
2018-10-06T07:33:15.365Z,100889.09
2018-10-06T07:35:43.545Z,100893.63
2018-10-06T07:38:11.597Z,100891.58
2018-10-06T07:40:39.665Z,100894.84
2018-10-06T07:43:07.822Z,100892.78
2018-10-06T07:45:35.881Z,100887.52
2018-10-06T07:48:03.958Z,100889.17
2018-10-06T07:50:32.017Z,100886.98
2018-10-06T07:53:00.133Z,100879.01
2018-10-06T07:55:28.205Z,100877.63
2018-10-06T07:57:56.289Z,100880.45
2018-10-06T08:00:24.370Z,100884.70
2018-10-06T08:02:52.458Z,100876.00
2018-10-06T08:05:20.505Z,100882.64
2018-10-06T08:07:48.629Z,100871.14
2018-10-06T08:10:16.697Z,100866.16
2018-10-06T08:12:44.845Z,100870.55
2018-10-06T08:15:12.913Z,100870.76
2018-10-06T08:17:41.078Z,100866.86
2018-10-06T08:20:09.139Z,100871.77
2018-10-06T08:22:37.220Z,100873.61
2018-10-06T08:25:05.718Z,100878.23
2018-10-06T08:27:33.818Z,100875.64
2018-10-06T08:30:01.886Z,100875.26
2018-10-06T08:32:29.952Z,100867.70
2018-10-06T08:34:58.034Z,100867.94
2018-10-06T08:37:26.091Z,100864.97
2018-10-06T08:39:54.166Z,100866.80
2018-10-06T08:42:22.229Z,100865.31
2018-10-06T08:44:50.306Z,100858.23
2018-10-06T08:47:18.378Z,100860.30
2018-10-06T08:49:46.518Z,100862.99
2018-10-06T08:52:14.552Z,100862.46
2018-10-06T08:54:42.646Z,100863.95
2018-10-06T08:57:10.704Z,100855.71
2018-10-06T08:59:38.785Z,100850.84
2018-10-06T09:02:07.169Z,100844.53
2018-10-06T09:04:35.234Z,100838.87
2018-10-06T09:07:03.322Z,100835.81
2018-10-06T09:09:31.394Z,100835.50
2018-10-06T09:11:59.469Z,100842.02
2018-10-06T09:14:27.561Z,100834.96
2018-10-06T09:16:55.654Z,100841.28
2018-10-06T09:19:23.725Z,100838.47
2018-10-06T09:21:51.800Z,100835.39
2018-10-06T09:24:19.889Z,100837.08
2018-10-06T09:26:47.945Z,100842.31
2018-10-06T09:29:16.028Z,100840.98
2018-10-06T09:31:44.103Z,100841.83
2018-10-06T09:34:12.189Z,100843.13
2018-10-06T09:36:40.262Z,100845.95
2018-10-06T09:39:09.289Z,100845.41
2018-10-06T09:41:37.360Z,100846.08
2018-10-06T09:44:05.529Z,100842.72
2018-10-06T09:46:33.584Z,100838.16
2018-10-06T09:49:01.682Z,100834.19
2018-10-06T09:51:29.808Z,100837.61
2018-10-06T09:53:57.890Z,100834.47
2018-10-06T09:56:25.960Z,100831.30
2018-10-06T09:58:54.032Z,100836.17
2018-10-06T10:01:27.597Z,100830.84
2018-10-06T10:04:01.168Z,100826.52
2018-10-06T10:06:29.249Z,100827.42
2018-10-06T10:08:57.338Z,100824.09
2018-10-06T10:11:25.437Z,100825.44
2018-10-06T10:13:53.523Z,100832.31
2018-10-06T10:16:21.592Z,100825.39
2018-10-06T10:18:49.717Z,100821.66
2018-10-06T10:21:17.799Z,100815.35
2018-10-06T10:23:45.919Z,100822.87
2018-10-06T10:26:13.961Z,100817.13
2018-10-06T10:28:42.042Z,100816.58
2018-10-06T10:31:10.137Z,100812.00
2018-10-06T10:33:38.261Z,100811.22
2018-10-06T10:36:06.956Z,100813.79
2018-10-06T10:38:35.009Z,100811.74
2018-10-06T10:41:03.100Z,100809.30
2018-10-06T10:43:31.274Z,100803.39
2018-10-06T10:45:59.366Z,100794.25
2018-10-06T10:48:27.580Z,100794.17
2018-10-06T10:50:55.690Z,100792.70
2018-10-06T10:53:23.765Z,100790.11
2018-10-06T10:55:51.837Z,100791.31
2018-10-06T10:58:19.905Z,100789.11
2018-10-06T11:00:47.997Z,100785.41
2018-10-06T11:03:16.078Z,100793.17
2018-10-06T11:05:44.209Z,100791.06
2018-10-06T11:08:12.285Z,100789.55
2018-10-06T11:10:40.377Z,100775.80
2018-10-06T11:13:08.705Z,100778.12
2018-10-06T11:15:36.788Z,100766.12
2018-10-06T11:18:05.048Z,100771.80
2018-10-06T11:20:33.138Z,100767.41
2018-10-06T11:23:01.221Z,100761.41
2018-10-06T11:25:29.301Z,100764.13
2018-10-06T11:27:57.369Z,100767.49
2018-10-06T11:30:25.441Z,100761.63
2018-10-06T11:32:53.585Z,100762.61
2018-10-06T11:35:21.673Z,100753.84
2018-10-06T11:37:49.953Z,100752.37
2018-10-06T11:40:17.905Z,100748.05
2018-10-06T11:42:45.977Z,100745.01
2018-10-06T11:45:14.074Z,100743.59
2018-10-06T11:47:42.204Z,100743.69
2018-10-06T11:50:10.283Z,100737.91
2018-10-06T11:52:38.365Z,100741.80
2018-10-06T11:55:06.461Z,100740.98
2018-10-06T11:57:34.593Z,100738.16
2018-10-06T12:00:02.724Z,100741.70
2018-10-06T12:02:30.755Z,100739.21
2018-10-06T12:04:58.910Z,100733.54
2018-10-06T12:07:27.029Z,100728.73
2018-10-06T12:09:55.149Z,100720.53
2018-10-06T12:12:23.222Z,100717.09
2018-10-06T12:14:51.392Z,100719.73
2018-10-06T12:17:19.572Z,100716.02
2018-10-06T12:19:47.637Z,100714.13
2018-10-06T12:22:15.809Z,100717.94
2018-10-06T12:24:43.869Z,100714.83
2018-10-06T12:27:11.945Z,100718.87
2018-10-06T12:29:40.015Z,100705.02
2018-10-06T12:32:08.089Z,100705.63
2018-10-06T12:34:36.247Z,100697.19
2018-10-06T12:37:04.329Z,100689.59
2018-10-06T12:39:32.394Z,100687.44
2018-10-06T12:42:00.532Z,100688.17
2018-10-06T12:44:28.673Z,100681.45
2018-10-06T12:46:56.745Z,100676.47
2018-10-06T12:49:24.884Z,100668.30
2018-10-06T12:51:52.961Z,100665.07
2018-10-06T12:54:21.037Z,100659.16
2018-10-06T12:56:49.121Z,100655.63
2018-10-06T12:59:17.181Z,100652.30
2018-10-06T13:01:45.261Z,100658.78
2018-10-06T13:04:13.329Z,100660.81
2018-10-06T13:06:41.473Z,100653.25
2018-10-06T13:09:10.869Z,100655.94
2018-10-06T13:11:39.132Z,100659.44
2018-10-06T13:14:07.242Z,100655.67
2018-10-06T13:16:35.309Z,100652.31
2018-10-06T13:19:03.389Z,100655.18
2018-10-06T13:21:31.618Z,100655.14
2018-10-06T13:23:59.709Z,100656.66
2018-10-06T13:26:27.903Z,100657.66
2018-10-06T13:28:55.971Z,100661.69
2018-10-06T13:31:24.033Z,100661.80
2018-10-06T13:33:52.189Z,100657.61
2018-10-06T13:36:20.269Z,100658.08
2018-10-06T13:38:48.350Z,100660.67
2018-10-06T13:41:16.420Z,100655.01
2018-10-06T13:43:44.517Z,100653.95
2018-10-06T13:46:12.637Z,100651.96
2018-10-06T13:48:40.813Z,100645.33
2018-10-06T13:51:09.078Z,100641.63
2018-10-06T13:53:37.163Z,100639.77
2018-10-06T13:56:05.307Z,100637.45
2018-10-06T13:58:33.434Z,100638.80
2018-10-06T14:01:01.471Z,100628.60
2018-10-06T14:03:29.547Z,100631.02
2018-10-06T14:05:57.613Z,100631.62
2018-10-06T14:08:25.694Z,100627.19
2018-10-06T14:10:53.770Z,100630.11
2018-10-06T14:13:21.841Z,100624.09
2018-10-06T14:15:50.101Z,100619.05
2018-10-06T14:18:18.171Z,100614.63
2018-10-06T14:20:46.238Z,100610.19
2018-10-06T14:23:14.310Z,100610.84
2018-10-06T14:25:42.385Z,100606.13
2018-10-06T14:28:10.506Z,100607.36
2018-10-06T14:30:38.688Z,100606.03
2018-10-06T14:33:06.821Z,100597.89
2018-10-06T14:35:34.897Z,100602.69
2018-10-06T14:38:02.984Z,100598.41
2018-10-06T14:40:31.102Z,100596.89
2018-10-06T14:42:59.251Z,100593.44
2018-10-06T14:45:27.420Z,100592.36
2018-10-06T14:47:55.517Z,100597.81
2018-10-06T14:50:23.605Z,100596.19
2018-10-06T14:52:51.677Z,100593.06
2018-10-06T14:55:19.745Z,100595.56
2018-10-06T14:57:47.812Z,100587.13
2018-10-06T15:00:15.922Z,100586.29
2018-10-06T15:02:44.037Z,100587.67
2018-10-06T15:05:12.217Z,100586.83
2018-10-06T15:07:40.298Z,100578.75
2018-10-06T15:10:08.434Z,100580.73
2018-10-06T15:12:36.522Z,100574.42
2018-10-06T15:15:04.886Z,100584.40
2018-10-06T15:17:32.965Z,100573.69
2018-10-06T15:20:01.048Z,100577.59
2018-10-06T15:22:29.119Z,100575.53
2018-10-06T15:24:57.191Z,100577.05
2018-10-06T15:27:25.269Z,100563.14
2018-10-06T15:29:53.349Z,100562.87
2018-10-06T15:32:21.407Z,100563.05
2018-10-06T15:34:49.529Z,100561.00
2018-10-06T15:37:17.600Z,100560.13
2018-10-06T15:39:45.666Z,100558.09
2018-10-06T15:42:13.780Z,100550.02
2018-10-06T15:44:41.857Z,100548.09
2018-10-06T15:47:09.920Z,100544.73
2018-10-06T15:49:38.081Z,100547.55
2018-10-06T15:52:06.569Z,100547.35
2018-10-06T15:54:34.637Z,100545.48
2018-10-06T15:57:02.734Z,100544.27
2018-10-06T15:59:30.806Z,100549.84
2018-10-06T16:01:58.954Z,100549.59
2018-10-06T16:04:27.046Z,100554.20
2018-10-06T16:06:55.124Z,100552.70
2018-10-06T16:09:23.266Z,100550.84
2018-10-06T16:11:51.388Z,100551.17
2018-10-06T16:14:19.509Z,100557.55
2018-10-06T16:16:47.777Z,100557.69
2018-10-06T16:19:15.857Z,100557.21
2018-10-06T16:21:44.091Z,100557.93
2018-10-06T16:24:12.178Z,100559.41
2018-10-06T16:26:40.362Z,100558.67
2018-10-06T16:29:08.449Z,100559.97
2018-10-06T16:31:36.525Z,100556.82
2018-10-06T16:34:04.682Z,100558.13
2018-10-06T16:36:32.752Z,100557.97
2018-10-06T16:39:00.981Z,100562.45
2018-10-06T16:41:29.094Z,100562.87
2018-10-06T16:43:57.186Z,100560.91
2018-10-06T16:46:25.266Z,100557.70
2018-10-06T16:48:53.412Z,100560.75
2018-10-06T16:51:21.505Z,100556.36
2018-10-06T16:53:49.622Z,100558.77
2018-10-06T16:56:18.121Z,100556.59
2018-10-06T16:58:46.201Z,100555.01
2018-10-06T17:01:14.277Z,100555.82
2018-10-06T17:03:42.376Z,100554.39
2018-10-06T17:06:10.476Z,100551.80
2018-10-06T17:08:38.577Z,100552.37
2018-10-06T17:11:06.652Z,100549.59
2018-10-06T17:13:34.749Z,100556.77
2018-10-06T17:16:02.842Z,100554.16
2018-10-06T17:18:30.978Z,100556.52
2018-10-06T17:20:59.815Z,100558.52
2018-10-06T17:23:27.914Z,100559.25
2018-10-06T17:25:55.996Z,100567.21
2018-10-06T17:28:24.081Z,100567.20
2018-10-06T17:30:52.169Z,100562.77
2018-10-06T17:33:20.274Z,100555.95
2018-10-06T17:35:48.365Z,100556.93
2018-10-06T17:38:16.473Z,100554.08
2018-10-06T17:40:44.553Z,100553.03
2018-10-06T17:43:12.625Z,100548.42
2018-10-06T17:45:40.709Z,100542.40
2018-10-06T17:48:08.791Z,100550.38
2018-10-06T17:50:37.098Z,100547.93
2018-10-06T17:53:04.982Z,100543.09
2018-10-06T17:55:33.069Z,100551.45
2018-10-06T17:58:01.146Z,100549.78
2018-10-06T18:00:29.236Z,100547.56
2018-10-06T18:02:57.321Z,100547.94
2018-10-06T18:05:25.405Z,100555.69
2018-10-06T18:07:53.479Z,100557.08
2018-10-06T18:10:21.565Z,100550.66
2018-10-06T18:12:49.657Z,100556.23
2018-10-06T18:15:17.738Z,100560.37
2018-10-06T18:17:45.809Z,100559.17
2018-10-06T18:20:13.972Z,100554.16
2018-10-06T18:22:41.993Z,100552.70
2018-10-06T18:25:10.079Z,100552.45
2018-10-06T18:27:38.166Z,100553.24
2018-10-06T18:30:06.273Z,100556.38
2018-10-06T18:32:34.356Z,100555.75
2018-10-06T18:35:02.457Z,100551.08
2018-10-06T18:37:30.541Z,100550.87
2018-10-06T18:39:58.628Z,100550.81
2018-10-06T18:42:26.709Z,100546.41
2018-10-06T18:44:54.794Z,100547.74
2018-10-06T18:47:22.882Z,100542.72
2018-10-06T18:49:50.961Z,100533.47
2018-10-06T18:52:19.079Z,100541.95
2018-10-06T18:54:47.129Z,100543.91
2018-10-06T18:57:15.226Z,100540.66
2018-10-06T18:59:43.314Z,100538.59
2018-10-06T19:02:11.409Z,100541.33
2018-10-06T19:04:39.488Z,100540.84
2018-10-06T19:07:07.573Z,100538.41
2018-10-06T19:09:35.653Z,100543.27
2018-10-06T19:12:03.789Z,100545.21
2018-10-06T19:14:31.876Z,100550.75
2018-10-06T19:17:00.017Z,100549.29
2018-10-06T19:19:28.109Z,100549.25
2018-10-06T19:21:56.218Z,100545.16
2018-10-06T19:24:24.312Z,100546.05
2018-10-06T19:26:52.471Z,100539.04
2018-10-06T19:29:20.549Z,100536.80
2018-10-06T19:31:48.654Z,100543.34
2018-10-06T19:34:16.749Z,100540.89
2018-10-06T19:36:44.828Z,100540.83
2018-10-06T19:39:12.905Z,100542.17
2018-10-06T19:41:40.984Z,100538.66
2018-10-06T19:44:09.073Z,100545.00
2018-10-06T19:46:37.198Z,100542.59
2018-10-06T19:49:05.309Z,100539.16
2018-10-06T19:51:33.709Z,100542.70
2018-10-06T19:54:01.977Z,100542.28
2018-10-06T19:56:30.102Z,100540.66
2018-10-06T19:58:58.238Z,100550.80
2018-10-06T20:01:26.333Z,100549.35
2018-10-06T20:03:54.454Z,100548.31
2018-10-06T20:06:22.509Z,100548.65
2018-10-06T20:08:50.597Z,100552.78
2018-10-06T20:11:18.696Z,100559.31
2018-10-06T20:13:46.861Z,100554.09
2018-10-06T20:16:14.950Z,100556.41
2018-10-06T20:18:43.025Z,100554.81
2018-10-06T20:21:11.132Z,100551.52
2018-10-06T20:23:39.209Z,100562.83
2018-10-06T20:26:07.845Z,100561.97
2018-10-06T20:28:35.938Z,100563.89
2018-10-06T20:31:04.022Z,100568.65
2018-10-06T20:33:32.149Z,100571.73
2018-10-06T20:36:00.234Z,100570.52
2018-10-06T20:38:28.333Z,100577.39
2018-10-06T20:40:56.423Z,100578.15
2018-10-06T20:43:24.521Z,100579.11
2018-10-06T20:45:52.602Z,100588.41
2018-10-06T20:48:20.685Z,100586.16
2018-10-06T20:50:48.757Z,100599.64
2018-10-06T20:53:16.858Z,100597.58
2018-10-06T20:55:44.946Z,100598.71
2018-10-06T20:58:13.077Z,100600.83
2018-10-06T21:00:41.166Z,100598.80
2018-10-06T21:03:09.274Z,100600.70
2018-10-06T21:05:37.366Z,100607.23
2018-10-06T21:08:05.665Z,100601.54
2018-10-06T21:10:33.742Z,100605.27
2018-10-06T21:13:01.885Z,100607.04
2018-10-06T21:15:29.970Z,100612.17
2018-10-06T21:17:58.053Z,100610.55
2018-10-06T21:20:26.131Z,100608.58
2018-10-06T21:22:54.226Z,100603.59
2018-10-06T21:25:22.338Z,100607.76
2018-10-06T21:27:50.433Z,100611.36
2018-10-06T21:30:18.557Z,100606.37
2018-10-06T21:32:46.677Z,100608.95
2018-10-06T21:35:14.771Z,100609.91
2018-10-06T21:37:42.865Z,100606.88
2018-10-06T21:40:10.984Z,100600.88
2018-10-06T21:42:39.074Z,100602.07
2018-10-06T21:45:07.221Z,100594.67
2018-10-06T21:47:35.328Z,100599.05
2018-10-06T21:50:03.414Z,100594.30
2018-10-06T21:52:31.566Z,100587.92
2018-10-06T21:54:59.770Z,100587.72
2018-10-06T21:57:27.893Z,100592.09
2018-10-06T21:59:55.965Z,100592.33
2018-10-06T22:02:24.050Z,100594.16
2018-10-06T22:04:52.133Z,100598.02
2018-10-06T22:07:20.473Z,100596.48
2018-10-06T22:09:48.621Z,100591.69
2018-10-06T22:12:16.740Z,100592.62
2018-10-06T22:14:44.830Z,100592.33
2018-10-06T22:17:12.901Z,100601.75
2018-10-06T22:19:40.988Z,100607.61
2018-10-06T22:22:09.072Z,100620.44
2018-10-06T22:24:37.153Z,100623.86
2018-10-06T22:27:05.287Z,100619.77
2018-10-06T22:29:33.355Z,100611.23
2018-10-06T22:32:01.433Z,100613.30
2018-10-06T22:34:29.530Z,100620.70
2018-10-06T22:36:57.605Z,100629.11
2018-10-06T22:39:25.729Z,100623.97
2018-10-06T22:41:53.819Z,100626.98
2018-10-06T22:44:21.961Z,100619.06
2018-10-06T22:46:50.043Z,100624.26
2018-10-06T22:49:18.126Z,100621.67
2018-10-06T22:51:46.208Z,100629.30
2018-10-06T22:54:14.298Z,100623.79
2018-10-06T22:56:42.369Z,100629.41
2018-10-06T22:59:10.438Z,100629.27
2018-10-06T23:01:38.521Z,100637.53
2018-10-06T23:04:06.682Z,100629.40
2018-10-06T23:06:34.749Z,100630.27
2018-10-06T23:09:02.825Z,100636.70
2018-10-06T23:11:30.901Z,100631.56
2018-10-06T23:13:58.991Z,100630.60
2018-10-06T23:16:27.078Z,100628.45
2018-10-06T23:18:55.187Z,100638.86
2018-10-06T23:21:23.281Z,100649.05
2018-10-06T23:23:51.353Z,100647.27
2018-10-06T23:26:19.430Z,100645.65
2018-10-06T23:28:47.501Z,100645.30
2018-10-06T23:31:15.572Z,100650.44
2018-10-06T23:33:43.689Z,100654.63
2018-10-06T23:36:11.762Z,100668.48
2018-10-06T23:38:39.845Z,100670.63
2018-10-06T23:41:07.961Z,100671.01
2018-10-06T23:43:36.046Z,100675.39
2018-10-06T23:46:04.114Z,100686.10
2018-10-06T23:48:32.220Z,100694.41
2018-10-06T23:51:00.314Z,100701.52
2018-10-06T23:53:28.385Z,100713.19
2018-10-06T23:55:56.469Z,100717.55
2018-10-06T23:58:24.533Z,100727.17
